Time;durP1;ratioP1;P1;durP2;ratioP2;P2;SDS_P1;SDS_P2;PMS_P1;PMS_P2;Temp;Humidity;BMP_temperature;BMP_pressure;BME280_temperature;BME280_humidity;BME280_pressure;Samples;Min_cycle;Max_cycle;Signal;HPM_P1;HPM_P2
2022/01/11 00:00:20;;;;;;;185.45;36.63;;;0.50;99.90;;;;;;5069154;28;20049;-80
2022/01/11 00:02:46;;;;;;;104.90;29.48;;;0.40;99.90;;;;;;5069541;28;20147;-81
2022/01/11 00:05:23;;;;;;;89.07;29.33;;;0.40;99.90;;;;;;5070155;28;20039;-80
2022/01/11 00:07:50;;;;;;;130.38;32.90;;;0.40;99.90;;;;;;5069811;28;20040;-80
2022/01/11 00:10:25;;;;;;;109.10;30.33;;;0.40;99.90;;;;;;5069767;28;20048;-80
2022/01/11 00:12:51;;;;;;;129.63;29.95;;;0.60;99.90;;;;;;5053145;28;20048;-80
2022/01/11 00:15:17;;;;;;;90.28;29.38;;;0.40;99.90;;;;;;5053079;28;20068;-80
2022/01/11 00:17:43;;;;;;;66.10;26.10;;;0.40;99.90;;;;;;5069602;28;20048;-81
2022/01/11 00:20:12;;;;;;;104.28;29.92;;;0.40;99.90;;;;;;5052996;28;20132;-80
2022/01/11 00:22:56;;;;;;;74.30;26.63;;;0.40;99.90;;;;;;5069565;28;20507;-80
2022/01/11 00:25:22;;;;;;;73.25;26.55;;;0.30;99.90;;;;;;5067612;28;20044;-81
2022/01/11 00:27:47;;;;;;;66.25;27.60;;;0.40;99.90;;;;;;5070070;28;20047;-80
2022/01/11 00:30:14;;;;;;;67.03;28.83;;;0.90;99.90;;;;;;5069720;28;20040;-80
2022/01/11 00:32:45;;;;;;;67.40;26.55;;;0.50;99.90;;;;;;5068589;28;20084;-80
2022/01/11 00:35:15;;;;;;;75.10;29.50;;;0.20;99.90;;;;;;5036489;28;20041;-81
2022/01/11 00:37:41;;;;;;;64.22;26.45;;;0.30;99.90;;;;;;5067957;28;20052;-80
2022/01/11 00:40:08;;;;;;;57.42;25.40;;;0.20;99.90;;;;;;5067792;28;20048;-80
2022/01/11 00:42:34;;;;;;;54.80;26.52;;;0.20;99.90;;;;;;5050472;28;20028;-80
2022/01/11 00:45:03;;;;;;;56.45;24.50;;;0.20;99.90;;;;;;5067486;28;20041;-80
2022/01/11 00:47:29;;;;;;;49.42;24.20;;;0.10;99.90;;;;;;5068324;28;20075;-80
2022/01/11 00:49:55;;;;;;;46.50;24.90;;;0.10;99.90;;;;;;5066638;28;20117;-80
2022/01/11 00:52:21;;;;;;;;;;;0.40;99.90;;;;;;5069006;28;20123;-81
2022/01/11 00:54:46;;;;;;;46.80;24.83;;;1.90;99.90;;;;;;5068896;28;20012;-80
2022/01/11 00:57:12;;;;;;;52.80;25.38;;;0.00;99.90;;;;;;5068864;28;20462;-81
2022/01/11 00:59:38;;;;;;;48.58;26.90;;;0.00;99.90;;;;;;5068415;28;20047;-80
2022/01/11 01:02:04;;;;;;;48.17;24.77;;;0.00;99.90;;;;;;5068962;28;20125;-81
2022/01/11 01:04:30;;;;;;;47.40;24.83;;;0.00;99.90;;;;;;5068713;28;20101;-80
2022/01/11 01:06:56;;;;;;;47.22;24.50;;;0.00;99.90;;;;;;5069685;28;20040;-80
2022/01/11 01:09:24;;;;;;;50.50;26.25;;;0.00;99.90;;;;;;5055150;28;20042;-80
2022/01/11 01:11:51;;;;;;;53.33;25.67;;;0.00;99.90;;;;;;5056157;28;20045;-80
2022/01/11 01:14:17;;;;;;;62.05;27.85;;;0.00;99.90;;;;;;5072340;28;20068;-80
2022/01/11 01:16:43;;;;;;;67.65;25.65;;;0.40;99.90;;;;;;5072325;28;20579;-80
2022/01/11 01:19:09;;;;;;;77.13;30.90;;;0.90;99.90;;;;;;5072247;28;20072;-80
2022/01/11 01:21:38;;;;;;;100.60;32.85;;;0.00;99.90;;;;;;5071947;28;20063;-81
2022/01/11 01:24:09;;;;;;;100.57;27.13;;;0.00;99.90;;;;;;5039792;28;20048;-80
2022/01/11 01:26:36;;;;;;;107.88;29.67;;;0.00;99.90;;;;;;5071661;28;20496;-81
2022/01/11 01:29:02;;;;;;;146.55;30.95;;;0.00;99.90;;;;;;5072162;28;20029;-81
2022/01/11 01:31:28;;;;;;;142.63;31.30;;;0.00;99.90;;;;;;5071638;28;20110;-81
2022/01/11 01:33:55;;;;;;;88.63;30.10;;;0.20;99.90;;;;;;5055366;28;20045;-81
2022/01/11 01:36:22;;;;;;;77.97;30.23;;;-0.10;99.90;;;;;;5071961;28;20028;-81
2022/01/11 01:38:48;;;;;;;71.28;30.45;;;-0.10;99.90;;;;;;5069625;28;20063;-81
2022/01/11 01:41:17;;;;;;;64.07;29.35;;;-0.10;99.90;;;;;;5071831;28;20036;-81
2022/01/11 01:43:45;;;;;;;63.75;29.40;;;-0.10;99.90;;;;;;5071848;28;20145;-81
2022/01/11 01:46:11;;;;;;;59.58;28.77;;;0.50;99.90;;;;;;5071987;28;20143;-81
2022/01/11 01:48:37;;;;;;;54.17;28.15;;;-0.10;99.90;;;;;;5071818;28;20064;-81
2022/01/11 01:51:05;;;;;;;64.18;30.92;;;-0.10;99.90;;;;;;5071875;28;20087;-81
2022/01/11 01:53:31;;;;;;;71.90;30.52;;;-0.20;99.90;;;;;;5071366;28;20040;-81
2022/01/11 01:55:57;;;;;;;73.65;31.73;;;-0.20;99.90;;;;;;5071801;28;20044;-81
2022/01/11 01:58:24;;;;;;;67.45;29.90;;;-0.20;99.90;;;;;;5054938;28;20051;-81
2022/01/11 02:00:55;;;;;;;62.70;29.35;;;-0.30;99.90;;;;;;5054402;28;20056;-81
2022/01/11 02:03:29;;;;;;;61.45;28.85;;;-0.30;99.90;;;;;;5071376;28;20036;-81
2022/01/11 02:05:56;;;;;;;59.60;27.50;;;-0.30;99.90;;;;;;5103858;28;20040;-81
2022/01/11 02:08:24;;;;;;;74.55;29.05;;;0.70;99.90;;;;;;5071332;28;20040;-81
2022/01/11 02:10:50;;;;;;;89.60;31.10;;;0.10;99.90;;;;;;5071184;28;20040;-81
2022/01/11 02:13:16;;;;;;;94.88;29.83;;;-0.30;99.90;;;;;;5071450;28;20036;-81
2022/01/11 02:15:42;;;;;;;78.85;30.05;;;-0.30;99.90;;;;;;5071254;28;20511;-81
2022/01/11 02:18:14;;;;;;;71.75;27.13;;;-0.30;99.90;;;;;;5054728;28;20040;-81
2022/01/11 02:20:45;;;;;;;71.25;29.92;;;-0.30;99.90;;;;;;5070856;28;20048;-81
2022/01/11 02:23:12;;;;;;;71.88;28.98;;;-0.30;99.90;;;;;;5071207;28;20045;-81
2022/01/11 02:25:38;;;;;;;71.60;29.65;;;-0.30;99.90;;;;;;5071112;28;20404;-81
2022/01/11 02:28:05;;;;;;;77.03;29.92;;;-0.20;99.90;;;;;;5054743;28;20736;-81
2022/01/11 02:30:33;;;;;;;72.57;30.52;;;-0.30;99.90;;;;;;5070632;28;20571;-81
2022/01/11 02:33:01;;;;;;;75.50;29.52;;;-0.20;99.90;;;;;;5071169;28;20106;-81
2022/01/11 02:35:28;;;;;;;82.45;31.98;;;-0.20;99.90;;;;;;5054537;28;20045;-81
2022/01/11 02:37:53;;;;;;;69.53;27.95;;;-0.20;99.90;;;;;;5054484;28;20050;-81
2022/01/11 02:40:19;;;;;;;82.18;31.63;;;-0.20;99.90;;;;;;5054255;28;20041;-81
2022/01/11 02:42:45;;;;;;;79.40;30.75;;;-0.20;99.90;;;;;;5070471;28;20043;-81
2022/01/11 02:45:16;;;;;;;89.00;31.35;;;-0.20;99.90;;;;;;5070988;28;20044;-81
2022/01/11 02:47:44;;;;;;;105.07;35.00;;;0.50;99.90;;;;;;5070655;28;20048;-81
2022/01/11 02:50:10;;;;;;;103.35;32.42;;;-0.20;99.90;;;;;;5068359;28;20067;-81
2022/01/11 02:52:36;;;;;;;133.63;33.55;;;-0.20;99.90;;;;;;5070093;28;20041;-81
2022/01/11 02:55:06;;;;;;;96.57;29.55;;;-0.20;99.90;;;;;;5070693;28;20528;-81
2022/01/11 02:57:32;;;;;;;99.15;29.05;;;-0.10;99.90;;;;;;5053324;28;20112;-81
2022/01/11 02:59:58;;;;;;;147.38;37.20;;;0.00;99.90;;;;;;5053831;28;20115;-81
2022/01/11 03:02:24;;;;;;;115.82;34.00;;;-0.10;99.90;;;;;;5070067;28;20048;-81
2022/01/11 03:04:49;;;;;;;175.38;38.60;;;-0.10;99.90;;;;;;5053445;28;20032;-81
2022/01/11 03:07:22;;;;;;;181.88;38.38;;;1.00;99.90;;;;;;5070492;28;20036;-81
2022/01/11 03:10:01;;;;;;;137.88;38.47;;;0.00;99.90;;;;;;5069807;28;20042;-81
2022/01/11 03:12:27;;;;;;;159.13;40.85;;;0.00;99.90;;;;;;5069108;28;20505;-81
2022/01/11 03:14:53;;;;;;;125.55;34.92;;;0.00;99.90;;;;;;5070370;28;20047;-81
2022/01/11 03:17:19;;;;;;;115.20;34.90;;;0.00;99.90;;;;;;5070658;28;20068;-81
2022/01/11 03:19:46;;;;;;;125.85;36.50;;;0.30;99.90;;;;;;5070293;28;20469;-81
2022/01/11 03:22:11;;;;;;;110.78;35.05;;;0.00;99.90;;;;;;5070280;28;20124;-81
2022/01/11 03:24:38;;;;;;;117.93;36.28;;;0.10;99.90;;;;;;5069550;28;20071;-81
2022/01/11 03:27:06;;;;;;;106.63;33.92;;;0.10;99.90;;;;;;5053592;28;20040;-81
2022/01/11 03:29:33;;;;;;;115.10;33.25;;;0.10;99.90;;;;;;5069545;28;20559;-81
2022/01/11 03:31:59;;;;;;;143.50;38.15;;;0.50;99.90;;;;;;5053131;28;20098;-81
2022/01/11 03:34:25;;;;;;;126.10;35.45;;;0.10;99.90;;;;;;5070181;28;20036;-81
2022/01/11 03:36:51;;;;;;;122.00;37.40;;;0.10;99.90;;;;;;5069364;28;20415;-81
2022/01/11 03:39:16;;;;;;;105.40;33.85;;;0.00;99.90;;;;;;5069870;28;20032;-81
2022/01/11 03:41:42;;;;;;;100.60;31.52;;;0.00;99.90;;;;;;5069375;28;20484;-81
2022/01/11 03:44:08;;;;;;;104.22;34.17;;;0.10;99.90;;;;;;5069834;28;20036;-81
2022/01/11 03:46:34;;;;;;;107.72;35.30;;;0.10;99.90;;;;;;5069578;28;20040;-81
2022/01/11 03:49:00;;;;;;;100.85;33.03;;;0.10;99.90;;;;;;5069345;28;20029;-81
2022/01/11 03:51:25;;;;;;;107.90;33.30;;;1.30;99.90;;;;;;5052987;28;20488;-81
2022/01/11 03:54:08;;;;;;;92.95;30.92;;;0.10;99.90;;;;;;5052408;28;20102;-81
2022/01/11 03:56:34;;;;;;;99.50;33.67;;;0.10;99.90;;;;;;5055295;28;20075;-81
2022/01/11 03:59:05;;;;;;;121.88;33.92;;;0.00;99.90;;;;;;5069149;28;20051;-81
2022/01/11 04:01:35;;;;;;;127.97;35.80;;;0.10;99.90;;;;;;5069330;28;20113;-80
2022/01/11 04:04:02;;;;;;;116.90;34.30;;;0.10;99.90;;;;;;5052571;28;20040;-81
2022/01/11 04:06:28;;;;;;;115.28;33.03;;;0.10;99.90;;;;;;5069530;28;20040;-81
2022/01/11 04:08:54;;;;;;;114.07;33.03;;;1.00;99.90;;;;;;5069108;28;20032;-81
2022/01/11 04:11:20;;;;;;;114.72;33.58;;;0.10;99.90;;;;;;5069321;28;20108;-81
2022/01/11 04:13:46;;;;;;;137.57;37.53;;;0.00;99.90;;;;;;5052290;28;20479;-81
2022/01/11 04:16:12;;;;;;;122.45;35.00;;;0.00;99.90;;;;;;5069513;28;20044;-81
2022/01/11 04:18:38;;;;;;;118.53;35.97;;;0.00;99.90;;;;;;5052493;28;20114;-81
2022/01/11 04:21:04;;;;;;;123.90;36.58;;;0.00;99.90;;;;;;5068960;28;20044;-81
2022/01/11 04:23:31;;;;;;;127.43;35.38;;;0.00;99.90;;;;;;5069356;28;20064;-81
2022/01/11 04:25:57;;;;;;;174.95;40.10;;;0.00;99.90;;;;;;5069083;28;20032;-81
2022/01/11 04:28:23;;;;;;;159.40;37.85;;;0.10;99.90;;;;;;5052509;28;20098;-81
2022/01/11 04:30:50;;;;;;;127.80;35.13;;;0.10;99.90;;;;;;5068925;28;20396;-81
2022/01/11 04:33:16;;;;;;;153.00;37.63;;;0.00;99.90;;;;;;5069926;28;20426;-81
2022/01/11 04:35:44;;;;;;;147.27;37.13;;;0.00;99.90;;;;;;5068860;28;20123;-81
2022/01/11 04:38:10;;;;;;;157.75;37.75;;;0.10;99.90;;;;;;5069265;28;20040;-81
2022/01/11 04:40:36;;;;;;;99.70;32.88;;;0.10;99.90;;;;;;5069056;28;20083;-81
2022/01/11 04:43:02;;;;;;;120.95;34.25;;;0.10;99.90;;;;;;5054506;28;20064;-81
2022/01/11 04:45:28;;;;;;;122.82;33.80;;;1.30;99.90;;;;;;5072910;28;20040;-81
2022/01/11 04:47:56;;;;;;;110.85;32.80;;;0.10;99.90;;;;;;5073132;28;20384;-81
2022/01/11 04:50:27;;;;;;;105.03;32.95;;;0.10;99.90;;;;;;5073476;28;20052;-81
2022/01/11 04:52:54;;;;;;;95.85;31.92;;;0.10;99.90;;;;;;5072778;28;20086;-81
2022/01/11 04:55:20;;;;;;;93.70;31.30;;;0.10;99.90;;;;;;5073284;28;20076;-81
2022/01/11 04:57:46;;;;;;;94.65;32.30;;;0.10;99.90;;;;;;5072984;28;20040;-81
2022/01/11 05:00:15;;;;;;;84.55;29.80;;;0.10;99.90;;;;;;5040069;28;20040;-81
2022/01/11 05:02:41;;;;;;;87.78;29.50;;;0.10;99.90;;;;;;5072888;28;20135;-81
2022/01/11 05:05:07;;;;;;;79.32;27.60;;;0.60;99.90;;;;;;5073172;28;20595;-81
2022/01/11 05:07:32;;;;;;;84.35;30.00;;;0.20;99.90;;;;;;5073269;28;20043;-81
2022/01/11 05:09:58;;;;;;;80.35;28.10;;;0.20;99.90;;;;;;5055789;28;20040;-81
2022/01/11 05:12:24;;;;;;;83.75;29.65;;;0.70;99.90;;;;;;5072748;28;20043;-81
2022/01/11 05:14:49;;;;;;;80.28;29.90;;;0.20;99.90;;;;;;5072301;28;20055;-82
2022/01/11 05:17:15;;;;;;;71.75;26.42;;;1.60;99.90;;;;;;5055857;28;20401;-82
2022/01/11 05:19:41;;;;;;;82.72;29.48;;;0.20;99.90;;;;;;5071491;28;20131;-81
2022/01/11 05:22:07;;;;;;;78.20;29.73;;;0.20;99.90;;;;;;5071385;28;20127;-81
2022/01/11 05:24:33;;;;;;;63.42;25.05;;;0.20;99.90;;;;;;5072964;28;20532;-81
2022/01/11 05:26:58;;;;;;;80.30;28.38;;;0.30;99.90;;;;;;5072774;28;20361;-81
2022/01/11 05:29:24;;;;;;;74.18;28.05;;;0.30;99.90;;;;;;5073267;28;20040;-81
2022/01/11 05:31:50;;;;;;;79.95;28.63;;;0.30;99.90;;;;;;5072881;28;20063;-81
2022/01/11 05:34:16;;;;;;;71.28;27.88;;;0.20;99.90;;;;;;5072631;28;20062;-80
2022/01/11 05:36:42;;;;;;;68.13;27.40;;;0.20;99.90;;;;;;5072841;28;20392;-80
2022/01/11 05:39:08;;;;;;;68.10;26.92;;;0.30;99.90;;;;;;5056102;28;20033;-80
2022/01/11 05:41:34;;;;;;;63.75;25.42;;;0.30;99.90;;;;;;5072450;28;20037;-80
2022/01/11 05:43:59;;;;;;;73.43;27.33;;;0.30;99.90;;;;;;5055480;28;20044;-80
2022/01/11 05:46:26;;;;;;;74.50;27.33;;;0.30;99.90;;;;;;5072447;28;20047;-81
2022/01/11 05:48:52;;;;;;;71.75;26.95;;;0.30;99.90;;;;;;5072371;28;20098;-80
2022/01/11 05:51:18;;;;;;;64.82;25.45;;;0.30;99.90;;;;;;5055924;28;20041;-80
2022/01/11 05:53:44;;;;;;;57.08;24.30;;;0.30;99.90;;;;;;5055426;28;20051;-78
2022/01/11 05:56:10;;;;;;;59.03;24.10;;;0.30;99.90;;;;;;5071899;28;20491;-80
2022/01/11 05:58:36;;;;;;;60.17;25.02;;;0.30;99.90;;;;;;5071432;28;20040;-79
2022/01/11 06:01:02;;;;;;;65.45;24.52;;;0.30;99.90;;;;;;5054389;28;20086;-79
2022/01/11 06:03:28;;;;;;;64.55;26.13;;;0.30;99.90;;;;;;5071780;28;20103;-79
2022/01/11 06:05:54;;;;;;;64.07;26.35;;;0.30;99.90;;;;;;5071539;28;20072;-79
2022/01/11 06:08:20;;;;;;;67.55;25.70;;;0.30;99.90;;;;;;5055208;28;20094;-79
2022/01/11 06:10:47;;;;;;;72.57;25.95;;;0.90;99.90;;;;;;5071658;28;20449;-79
2022/01/11 06:13:13;;;;;;;71.07;25.13;;;0.30;99.90;;;;;;5055210;28;20484;-80
2022/01/11 06:15:38;;;;;;;63.13;24.85;;;0.20;99.90;;;;;;5068721;28;20036;-79
2022/01/11 06:18:08;;;;;;;59.03;23.55;;;0.20;99.90;;;;;;5071415;28;20039;-79
2022/01/11 06:20:33;;;;;;;63.90;24.55;;;0.20;99.90;;;;;;5071275;28;20037;-79
2022/01/11 06:22:59;;;;;;;63.70;25.42;;;0.30;99.90;;;;;;5071184;28;20036;-79
2022/01/11 06:25:25;;;;;;;61.65;24.40;;;0.20;99.90;;;;;;5071674;28;20472;-79
2022/01/11 06:27:51;;;;;;;59.17;24.20;;;0.20;99.90;;;;;;5071448;28;20130;-79
2022/01/11 06:30:17;;;;;;;68.20;26.13;;;0.30;99.90;;;;;;5071277;28;20071;-79
2022/01/11 06:32:45;;;;;;;58.53;24.83;;;0.30;99.90;;;;;;5071005;28;20472;-79
2022/01/11 06:35:15;;;;;;;61.30;24.08;;;0.30;99.90;;;;;;5053944;28;20060;-79
2022/01/11 06:37:41;;;;;;;63.05;25.25;;;0.20;99.90;;;;;;5068773;28;20181;-80
2022/01/11 06:40:08;;;;;;;64.35;24.67;;;0.20;99.90;;;;;;5070477;28;20053;-79
2022/01/11 06:42:34;;;;;;;60.97;26.27;;;0.20;99.90;;;;;;5071383;28;20044;-79
2022/01/11 06:45:00;;;;;;;57.40;23.73;;;0.30;99.90;;;;;;5070660;28;20119;-79
2022/01/11 06:47:26;;;;;;;56.88;24.92;;;0.10;99.90;;;;;;5070936;28;20040;-80
2022/01/11 06:49:52;;;;;;;60.85;24.73;;;0.20;99.90;;;;;;5070759;28;20067;-80
2022/01/11 06:52:17;;;;;;;55.97;22.88;;;0.20;99.90;;;;;;5070665;28;20094;-80
2022/01/11 06:54:43;;;;;;;60.22;24.42;;;0.20;99.90;;;;;;5070598;28;20041;-80
2022/01/11 06:57:09;;;;;;;59.75;23.17;;;1.10;99.90;;;;;;5070019;28;20032;-79
2022/01/11 06:59:36;;;;;;;55.63;23.20;;;0.20;99.90;;;;;;5070214;28;20123;-79
2022/01/11 07:02:04;;;;;;;58.10;23.73;;;0.20;99.90;;;;;;5053318;28;20087;-79
2022/01/11 07:04:30;;;;;;;53.92;22.42;;;0.20;99.90;;;;;;5069809;28;20049;-79
2022/01/11 07:06:56;;;;;;;56.30;23.45;;;0.20;99.90;;;;;;5070481;28;20048;-79
2022/01/11 07:09:22;;;;;;;59.40;23.60;;;0.40;99.90;;;;;;5069967;28;20034;-79
2022/01/11 07:11:47;;;;;;;56.17;22.77;;;0.40;99.90;;;;;;5053828;28;20029;-79
2022/01/11 07:14:13;;;;;;;48.00;22.42;;;0.70;99.90;;;;;;5067458;28;20037;-79
2022/01/11 07:16:39;;;;;;;55.35;22.00;;;0.50;99.90;;;;;;5070309;28;20041;-79
2022/01/11 07:19:05;;;;;;;54.45;22.20;;;0.50;99.90;;;;;;5069809;28;20108;-79
2022/01/11 07:21:34;;;;;;;53.45;23.20;;;0.40;99.90;;;;;;5053350;28;20051;-79
2022/01/11 07:24:02;;;;;;;52.63;21.77;;;0.40;99.90;;;;;;5069974;28;20047;-79
2022/01/11 07:26:28;;;;;;;54.40;22.42;;;0.30;99.90;;;;;;5070149;28;20457;-79
2022/01/11 07:28:53;;;;;;;57.28;23.33;;;0.60;99.90;;;;;;5070093;28;20040;-80
2022/01/11 07:31:19;;;;;;;47.55;20.55;;;0.30;99.90;;;;;;5069578;28;20500;-79
2022/01/11 07:33:45;;;;;;;57.95;22.92;;;0.40;99.90;;;;;;5070045;28;20083;-80
2022/01/11 07:36:11;;;;;;;46.72;20.23;;;0.40;99.90;;;;;;5052794;28;20048;-80
2022/01/11 07:38:37;;;;;;;53.88;21.08;;;0.40;99.90;;;;;;5070073;28;20039;-80
2022/01/11 07:41:02;;;;;;;52.75;22.00;;;0.40;99.90;;;;;;5069328;28;20469;-80
2022/01/11 07:43:28;;;;;;;46.83;19.08;;;0.50;99.90;;;;;;5069834;28;20040;-80
2022/01/11 07:45:54;;;;;;;45.73;21.60;;;0.50;99.90;;;;;;5070427;28;20041;-80
2022/01/11 07:48:19;;;;;;;47.80;19.77;;;0.50;99.90;;;;;;5071011;28;20307;-80
2022/01/11 07:50:45;;;;;;;49.50;20.75;;;0.60;99.90;;;;;;5053140;28;20040;-80
2022/01/11 07:53:11;;;;;;;46.63;20.43;;;0.70;99.90;;;;;;5069724;28;20032;-80
2022/01/11 07:55:38;;;;;;;49.38;21.48;;;0.50;99.90;;;;;;5069904;28;20289;-80
2022/01/11 07:58:03;;;;;;;45.15;20.67;;;0.50;99.90;;;;;;5052835;28;20500;-80
2022/01/11 08:00:31;;;;;;;41.70;19.77;;;0.50;99.90;;;;;;5069884;28;20063;-80
2022/01/11 08:02:57;;;;;;;49.20;19.80;;;0.60;99.90;;;;;;5069846;28;20040;-80
2022/01/11 08:05:22;;;;;;;44.67;20.30;;;1.60;99.90;;;;;;5069367;28;20678;-80
2022/01/11 08:07:49;;;;;;;49.22;20.90;;;0.60;99.90;;;;;;5069797;28;20939;-80
2022/01/11 08:10:18;;;;;;;43.53;18.73;;;1.80;99.90;;;;;;5052317;28;20111;-80
2022/01/11 08:12:44;;;;;;;42.78;18.98;;;0.70;99.90;;;;;;5052934;28;20067;-80
2022/01/11 08:15:11;;;;;;;;;;;0.90;99.90;;;;;;5069899;28;20040;-81
2022/01/11 08:17:36;;;;;;;42.08;18.27;;;0.70;99.90;;;;;;5073250;28;19917;-80
2022/01/11 08:20:03;;;;;;;49.20;20.50;;;0.70;99.90;;;;;;5073554;28;20035;-80
2022/01/11 08:22:29;;;;;;;47.25;19.98;;;0.70;99.90;;;;;;5073264;28;20041;-80
2022/01/11 08:24:55;;;;;;;46.67;20.15;;;0.80;99.90;;;;;;5074179;28;20123;-80
2022/01/11 08:27:22;;;;;;;45.88;18.60;;;0.80;99.90;;;;;;5073232;28;20115;-80
2022/01/11 08:29:49;;;;;;;40.38;17.05;;;0.90;99.90;;;;;;5073545;28;20036;-80
2022/01/11 08:32:15;;;;;;;46.35;18.83;;;1.00;99.90;;;;;;5073038;28;20052;-80
2022/01/11 08:34:41;;;;;;;40.80;18.33;;;1.20;99.90;;;;;;5073263;28;20045;-80
2022/01/11 08:37:08;;;;;;;40.17;17.60;;;1.40;99.90;;;;;;5073349;28;20419;-80
2022/01/11 08:39:34;;;;;;;37.15;15.60;;;1.80;99.90;;;;;;5070801;28;20046;-80
2022/01/11 08:42:00;;;;;;;37.85;16.35;;;2.20;99.90;;;;;;5057130;28;20074;-80
2022/01/11 08:44:26;;;;;;;36.10;16.08;;;1.80;99.90;;;;;;5056126;28;20062;-80
2022/01/11 08:46:52;;;;;;;33.72;14.40;;;1.70;99.90;;;;;;5073038;28;20032;-80
2022/01/11 08:49:18;;;;;;;31.83;14.45;;;2.10;99.90;;;;;;5072590;28;20527;-80
2022/01/11 08:51:44;;;;;;;34.67;14.65;;;1.60;99.90;;;;;;5073265;28;20516;-80
2022/01/11 08:54:13;;;;;;;33.70;14.70;;;1.80;99.90;;;;;;5072701;28;20091;-80
2022/01/11 08:56:40;;;;;;;31.85;15.30;;;1.90;99.90;;;;;;5072898;28;20033;-80
2022/01/11 08:59:06;;;;;;;30.48;15.00;;;2.00;99.90;;;;;;5073141;28;20486;-80
2022/01/11 09:01:31;;;;;;;34.15;13.55;;;2.30;99.90;;;;;;5072068;28;20059;-80
2022/01/11 09:03:58;;;;;;;33.90;15.57;;;1.90;99.90;;;;;;5073014;28;20104;-80
2022/01/11 09:06:24;;;;;;;;;;;2.00;99.90;;;;;;5072547;28;20043;-80
2022/01/11 09:08:50;;;;;;;32.13;13.38;;;1.80;99.90;;;;;;5056266;28;19963;-80
2022/01/11 09:11:16;;;;;;;32.03;14.38;;;1.60;99.90;;;;;;5072331;28;20040;-80
2022/01/11 09:13:42;;;;;;;24.88;12.68;;;1.50;99.90;;;;;;5039602;28;20042;-80
2022/01/11 09:16:08;;;;;;;31.13;14.30;;;1.40;99.90;;;;;;5072684;28;20048;-80
2022/01/11 09:18:34;;;;;;;30.20;13.40;;;1.40;99.90;;;;;;5072537;28;20064;-80
2022/01/11 09:21:03;;;;;;;26.30;12.63;;;1.30;99.90;;;;;;5072443;28;20076;-80
2022/01/11 09:23:29;;;;;;;27.65;12.13;;;1.70;99.90;;;;;;5072093;28;20067;-80
2022/01/11 09:25:55;;;;;;;;;;;1.30;99.90;;;;;;5055915;28;20041;-80
2022/01/11 09:28:21;;;;;;;33.60;14.57;;;1.20;99.90;;;;;;5071355;28;19924;-80
2022/01/11 09:30:47;;;;;;;21.83;11.90;;;1.10;99.90;;;;;;5072140;28;20037;-80
2022/01/11 09:33:14;;;;;;;33.83;15.18;;;1.10;99.90;;;;;;5072119;28;20513;-80
2022/01/11 09:35:39;;;;;;;;;;;1.00;99.90;;;;;;5072541;28;20037;-80
2022/01/11 09:38:05;;;;;;;22.55;11.63;;;1.10;99.90;;;;;;5072480;28;20380;-80
2022/01/11 09:40:31;;;;;;;26.83;14.60;;;1.00;99.90;;;;;;5071759;28;20489;-80
2022/01/11 09:42:57;;;;;;;30.02;14.60;;;1.00;99.90;;;;;;5072070;28;20097;-80
2022/01/11 09:45:23;;;;;;;30.98;13.15;;;2.10;99.90;;;;;;5071805;28;20036;-80
2022/01/11 09:47:49;;;;;;;29.70;13.75;;;1.40;99.90;;;;;;5069465;28;20046;-80
2022/01/11 09:50:16;;;;;;;28.13;12.98;;;1.00;99.90;;;;;;5071888;28;20392;-80
2022/01/11 09:52:43;;;;;;;29.67;13.38;;;1.20;99.90;;;;;;5071681;28;20102;-80
2022/01/11 09:55:12;;;;;;;24.67;12.43;;;1.30;99.90;;;;;;5055507;28;20567;-80
2022/01/11 09:57:40;;;;;;;22.83;11.32;;;1.10;99.90;;;;;;5072014;28;20115;-80
2022/01/11 10:00:09;;;;;;;28.25;13.77;;;1.20;99.90;;;;;;5071753;28;20042;-80
2022/01/11 10:02:34;;;;;;;27.02;12.68;;;1.20;99.90;;;;;;5070965;28;20056;-80
2022/01/11 10:05:05;;;;;;;30.05;14.20;;;1.20;99.90;;;;;;5071413;28;20127;-80
2022/01/11 10:07:34;;;;;;;26.33;12.18;;;1.20;99.90;;;;;;5071536;28;20047;-80
2022/01/11 10:10:00;;;;;;;28.13;13.00;;;1.20;99.90;;;;;;5071622;28;20048;-80
2022/01/11 10:12:29;;;;;;;27.70;13.13;;;1.40;99.90;;;;;;5070923;28;20051;-80
2022/01/11 10:14:58;;;;;;;26.70;13.23;;;1.80;99.90;;;;;;5071405;28;20044;-79
2022/01/11 10:17:27;;;;;;;27.33;12.52;;;1.90;99.90;;;;;;5070799;28;20174;-80
2022/01/11 10:20:16;;;;;;;26.30;12.82;;;1.30;99.90;;;;;;5071647;28;20048;-80
2022/01/11 10:22:52;;;;;;;25.70;11.07;;;1.40;99.90;;;;;;5069689;28;20044;-80
2022/01/11 10:25:18;;;;;;;22.40;11.85;;;1.60;99.90;;;;;;5071037;28;20064;-80
2022/01/11 10:27:51;;;;;;;25.95;12.60;;;1.60;99.90;;;;;;5071153;28;20646;-80
2022/01/11 10:30:20;;;;;;;25.42;12.48;;;1.70;99.90;;;;;;5070911;28;20048;-80
2022/01/11 10:32:49;;;;;;;22.88;11.23;;;1.40;99.90;;;;;;5071156;28;20036;-80
2022/01/11 10:35:18;;;;;;;27.95;13.55;;;1.80;99.90;;;;;;5070900;28;20048;-80
2022/01/11 10:37:46;;;;;;;25.95;11.80;;;1.70;99.90;;;;;;5070834;28;20037;-80
2022/01/11 10:40:18;;;;;;;26.30;12.30;;;1.70;99.90;;;;;;5069641;28;20052;-80
2022/01/11 10:42:49;;;;;;;31.15;13.55;;;1.70;99.90;;;;;;5068888;28;20037;-80
2022/01/11 10:45:28;;;;;;;25.58;13.70;;;1.60;99.90;;;;;;5054259;28;20162;-80
2022/01/11 10:48:03;;;;;;;23.08;11.27;;;1.60;99.90;;;;;;5068896;28;20093;-80
2022/01/11 10:50:42;;;;;;;28.25;13.30;;;1.80;99.90;;;;;;5070088;28;20076;-80
2022/01/11 10:53:15;;;;;;;28.38;13.10;;;1.70;99.90;;;;;;5067764;28;20373;-80
2022/01/11 10:55:42;;;;;;;28.08;13.35;;;1.70;99.90;;;;;;5067709;28;20048;-80
2022/01/11 10:58:11;;;;;;;31.13;13.50;;;1.80;99.90;;;;;;5052223;28;20044;-79
2022/01/11 11:00:38;;;;;;;25.58;12.73;;;2.30;99.90;;;;;;5069885;28;20048;-80
2022/01/11 11:03:10;;;;;;;29.40;12.70;;;2.00;99.90;;;;;;5054265;28;20495;-80
2022/01/11 11:05:39;;;;;;;27.30;13.65;;;2.30;99.90;;;;;;5070157;28;20044;-79
2022/01/11 11:08:10;;;;;;;26.92;12.43;;;3.40;99.90;;;;;;5053847;28;20629;-79
2022/01/11 11:10:40;;;;;;;29.30;13.45;;;2.80;99.90;;;;;;5069858;28;20116;-79
2022/01/11 11:13:08;;;;;;;26.73;12.75;;;2.50;99.90;;;;;;5070768;28;20412;-82
2022/01/11 11:15:37;;;;;;;26.92;13.00;;;2.60;99.90;;;;;;5053513;28;20384;-81
2022/01/11 11:18:05;;;;;;;26.55;13.10;;;2.50;99.90;;;;;;5070432;28;20040;-81
2022/01/11 11:20:32;;;;;;;27.48;13.02;;;2.40;99.90;;;;;;5069907;28;20404;-78
2022/01/11 11:22:59;;;;;;;26.48;11.70;;;2.40;99.90;;;;;;5069964;28;20041;-79
2022/01/11 11:25:26;;;;;;;28.00;12.43;;;2.50;99.90;;;;;;5069946;28;20484;-81
2022/01/11 11:27:52;;;;;;;22.00;10.95;;;2.60;99.90;;;;;;5069986;28;20119;-81
2022/01/11 11:30:19;;;;;;;25.52;12.35;;;2.80;99.90;;;;;;5068759;28;20080;-79
2022/01/11 11:32:46;;;;;;;26.50;12.63;;;3.10;99.90;;;;;;5067652;28;20036;-81
2022/01/11 11:35:14;;;;;;;25.70;12.27;;;3.10;99.90;;;;;;5068374;28;20393;-81
2022/01/11 11:37:41;;;;;;;22.70;11.20;;;3.20;99.90;;;;;;5068054;28;20041;-81
2022/01/11 11:40:20;;;;;;;24.65;12.40;;;3.30;99.90;;;;;;5068496;28;20416;-81
2022/01/11 11:42:50;;;;;;;25.55;12.05;;;3.60;99.90;;;;;;5068055;28;20516;-81
2022/01/11 11:45:17;;;;;;;25.15;12.73;;;4.50;99.90;;;;;;5070045;28;20044;-81
2022/01/11 11:47:44;;;;;;;23.63;12.35;;;3.70;99.90;;;;;;5053020;28;20036;-79
2022/01/11 11:50:15;;;;;;;26.20;13.02;;;4.50;99.90;;;;;;5069844;28;20123;-79
2022/01/11 11:52:44;;;;;;;25.73;13.55;;;3.90;99.90;;;;;;5069112;28;20080;-79
2022/01/11 11:55:33;;;;;;;25.50;12.60;;;3.90;99.90;;;;;;5070176;28;20055;-78
2022/01/11 11:58:02;;;;;;;24.02;11.90;;;4.00;99.90;;;;;;5067637;28;20056;-79
2022/01/11 12:00:43;;;;;;;25.70;12.55;;;3.90;99.90;;;;;;5069072;28;20064;-78
2022/01/11 12:03:25;;;;;;;25.38;12.23;;;3.90;99.90;;;;;;5152213;27;1296058;-79
2022/01/11 12:05:53;;;;;;;26.83;12.88;;;3.90;99.90;;;;;;5142296;27;20054;-79
2022/01/11 12:08:26;;;;;;;25.70;12.32;;;3.80;99.90;;;;;;5140770;27;20045;-79
2022/01/11 12:10:54;;;;;;;23.40;12.38;;;3.70;99.90;;;;;;5141480;27;20043;-79
2022/01/11 12:13:39;;;;;;;25.45;12.73;;;3.70;99.90;;;;;;5139849;27;20070;-79
2022/01/11 12:16:24;;;;;;;23.08;12.23;;;4.10;99.90;;;;;;5134434;27;20035;-79
2022/01/11 12:19:02;;;;;;;25.65;12.45;;;3.60;99.90;;;;;;5136887;27;20054;-79
2022/01/11 12:21:30;;;;;;;25.38;13.27;;;3.60;99.90;;;;;;5138310;27;20047;-79
2022/01/11 12:23:58;;;;;;;25.00;12.82;;;3.50;99.90;;;;;;5141663;27;20073;-79
2022/01/11 12:26:27;;;;;;;26.52;12.02;;;3.50;99.90;;;;;;5143889;27;20040;-79
2022/01/11 12:29:07;;;;;;;28.60;12.98;;;4.40;99.90;;;;;;5141570;27;20390;-79
2022/01/11 12:31:39;;;;;;;28.15;12.70;;;3.50;99.90;;;;;;5123182;27;20545;-79
2022/01/11 12:34:09;;;;;;;24.73;12.55;;;3.40;99.90;;;;;;5139640;27;20046;-79
2022/01/11 12:36:54;;;;;;;24.63;12.18;;;3.40;99.90;;;;;;5138210;27;20501;-79